createdAt,value
2023-12-07T00:00:04.023Z,79.79004
2023-12-07T00:01:04.149Z,79.79004
2023-12-07T00:02:04.129Z,80.20117
2023-12-07T00:03:04.084Z,80.20117
2023-12-07T00:04:04.105Z,80.20117
2023-12-07T00:05:04.011Z,80.20117
2023-12-07T00:06:04.036Z,80.27344
2023-12-07T00:07:04.040Z,80.27344
2023-12-07T00:08:04.012Z,79.9502
2023-12-07T00:09:04.015Z,79.9502
2023-12-07T00:10:04.137Z,80.08203
2023-12-07T00:11:04.014Z,80.08203
2023-12-07T00:12:04.101Z,80.42285
2023-12-07T00:13:04.022Z,80.42285
2023-12-07T00:14:04.019Z,80.44336
2023-12-07T00:15:04.031Z,80.44336
2023-12-07T00:16:04.059Z,80.30762
2023-12-07T00:17:04.025Z,80.30762
2023-12-07T00:18:04.016Z,80.20215
2023-12-07T00:19:04.093Z,80.20215
2023-12-07T00:20:04.035Z,80.35059
2023-12-07T00:21:04.029Z,80.35059
2023-12-07T00:22:04.032Z,80.35059
2023-12-07T00:23:04.018Z,80.35059
2023-12-07T00:24:04.034Z,80.59277
2023-12-07T00:25:04.051Z,80.59277
2023-12-07T00:26:04.030Z,82.55273
2023-12-07T00:27:04.049Z,82.55273
2023-12-07T00:28:04.061Z,82.55273
2023-12-07T00:29:04.024Z,82.55273
2023-12-07T00:30:04.021Z,82.55273
2023-12-07T00:31:04.057Z,82.16504
2023-12-07T00:32:04.014Z,82.16504
2023-12-07T00:33:04.038Z,82.4541
2023-12-07T00:34:04.042Z,82.4541
2023-12-07T00:35:04.052Z,81.70703
2023-12-07T00:36:04.018Z,81.70703
2023-12-07T00:37:04.033Z,81.06836
2023-12-07T00:38:04.016Z,81.06836
2023-12-07T00:39:04.030Z,79.99414
2023-12-07T00:40:04.054Z,79.99414
2023-12-07T00:41:04.029Z,79.91406
2023-12-07T00:42:04.017Z,79.91406
2023-12-07T00:43:04.043Z,79.78613
2023-12-07T00:44:04.032Z,79.78613
2023-12-07T00:45:04.028Z,80.26367
2023-12-07T00:46:04.088Z,80.26367
2023-12-07T00:47:04.016Z,80.62207
2023-12-07T00:48:04.065Z,80.62207
2023-12-07T00:49:04.057Z,81.50293
2023-12-07T00:50:04.020Z,81.50293
2023-12-07T00:51:04.027Z,81.78125
2023-12-07T00:52:04.101Z,81.78125
2023-12-07T00:53:04.018Z,82.19141
2023-12-07T00:54:04.036Z,82.19141
2023-12-07T00:55:11.383Z,81.875
2023-12-07T00:56:05.140Z,81.875
2023-12-07T00:57:04.019Z,81.59863
2023-12-07T00:58:04.099Z,81.59863
2023-12-07T00:59:04.033Z,81.59863
2023-12-07T01:00:04.023Z,81.59863
2023-12-07T01:01:04.050Z,81.59863
2023-12-07T01:02:04.022Z,81.8252
2023-12-07T01:03:04.123Z,81.8252
2023-12-07T01:04:04.144Z,81.8252
2023-12-07T01:05:04.047Z,82.04492
2023-12-07T01:06:04.113Z,82.04492
2023-12-07T01:07:04.233Z,83.18066
2023-12-07T01:08:04.026Z,83.18066
2023-12-07T01:09:04.034Z,83.46094
2023-12-07T01:10:04.184Z,83.46094
2023-12-07T01:11:04.023Z,82.55957
2023-12-07T01:12:04.017Z,82.55957
2023-12-07T01:13:04.092Z,82.57617
2023-12-07T01:14:04.023Z,82.57617
2023-12-07T01:15:04.030Z,83.49902
2023-12-07T01:16:04.136Z,83.49902
2023-12-07T01:17:04.023Z,83.58984
2023-12-07T01:18:04.087Z,83.58984
2023-12-07T01:19:04.048Z,83.34082
2023-12-07T01:20:04.038Z,83.34082
2023-12-07T01:21:04.073Z,83.3418
2023-12-07T01:22:04.063Z,83.3418
2023-12-07T01:23:04.028Z,83.3418
2023-12-07T01:24:12.916Z,83.30176
2023-12-07T01:25:05.306Z,83.30176
2023-12-07T01:26:04.212Z,82.90723
2023-12-07T01:27:04.023Z,82.90723
2023-12-07T01:28:04.122Z,82.25391
2023-12-07T01:29:04.034Z,82.25391
2023-12-07T01:30:04.072Z,82.7168
2023-12-07T01:31:04.130Z,82.7168
2023-12-07T01:32:04.027Z,83.49121
2023-12-07T01:33:04.075Z,83.49121
2023-12-07T01:34:04.304Z,81.78223
2023-12-07T01:35:04.079Z,81.78223
2023-12-07T01:36:04.027Z,81.18848
2023-12-07T01:37:04.073Z,81.18848
2023-12-07T01:38:04.024Z,81.18848
2023-12-07T01:39:04.032Z,78.89941
2023-12-07T01:40:04.141Z,78.89941
2023-12-07T01:41:04.027Z,78.7627
2023-12-07T01:42:04.022Z,78.7627
2023-12-07T01:43:04.040Z,78.75391
2023-12-07T01:44:04.034Z,78.75391
2023-12-07T01:45:04.028Z,78.44043
2023-12-07T01:46:04.043Z,78.44043
2023-12-07T01:47:04.028Z,78.09766
2023-12-07T01:48:04.090Z,78.09766
2023-12-07T01:49:04.080Z,78.20117
2023-12-07T01:50:04.026Z,78.20117
2023-12-07T01:51:04.024Z,78.11816
2023-12-07T01:52:04.052Z,78.11816
2023-12-07T01:53:06.501Z,78.31055
2023-12-07T01:54:05.160Z,78.31055
2023-12-07T01:55:04.128Z,78.3457
2023-12-07T01:56:04.032Z,78.3457
2023-12-07T01:57:04.047Z,78.3457
2023-12-07T01:58:04.084Z,78.28809
2023-12-07T01:59:04.030Z,78.28809
2023-12-07T02:00:04.033Z,78.00977
2023-12-07T02:01:04.083Z,78.00977
2023-12-07T02:02:04.059Z,77.98145
2023-12-07T02:03:04.051Z,77.98145
2023-12-07T02:04:04.124Z,77.98145
2023-12-07T02:05:04.046Z,77.9834
2023-12-07T02:06:04.043Z,77.9834
2023-12-07T02:07:04.071Z,78.31641
2023-12-07T02:08:04.032Z,78.31641
2023-12-07T02:09:04.028Z,78.44043
2023-12-07T02:10:04.164Z,78.44043
2023-12-07T02:11:04.029Z,78.70703
2023-12-07T02:12:04.041Z,78.70703
2023-12-07T02:13:04.061Z,78.71094
2023-12-07T02:14:04.032Z,78.71094
2023-12-07T02:15:04.025Z,78.80273
2023-12-07T02:16:04.062Z,78.80273
2023-12-07T02:17:04.040Z,78.875
2023-12-07T02:18:04.295Z,78.875
2023-12-07T02:19:04.195Z,79.03809
2023-12-07T02:20:04.061Z,79.03809
2023-12-07T02:21:04.038Z,79.08203
2023-12-07T02:22:04.102Z,79.08203
2023-12-07T02:23:04.034Z,79.70605
2023-12-07T02:24:04.048Z,79.70605
2023-12-07T02:25:04.079Z,79.64551
2023-12-07T02:26:04.025Z,79.64551
2023-12-07T02:27:04.050Z,79.51953
2023-12-07T02:28:04.067Z,79.51953
2023-12-07T02:29:04.041Z,79.33887
2023-12-07T02:30:04.026Z,79.33887
2023-12-07T02:31:04.076Z,79.8877
2023-12-07T02:32:04.040Z,79.8877
2023-12-07T02:33:04.197Z,80.09473
2023-12-07T02:34:04.225Z,80.09473
2023-12-07T02:35:04.047Z,80.21875
2023-12-07T02:36:04.050Z,80.21875
2023-12-07T02:37:04.055Z,80.125
2023-12-07T02:38:04.035Z,80.125
2023-12-07T02:39:04.033Z,80.29492
2023-12-07T02:40:04.069Z,80.29492
2023-12-07T02:41:04.038Z,80.77148
2023-12-07T02:42:04.039Z,80.77148
2023-12-07T02:43:04.102Z,81.60059
2023-12-07T02:44:04.035Z,81.60059
2023-12-07T02:45:04.030Z,81.87402
2023-12-07T02:46:04.109Z,81.87402
2023-12-07T02:47:04.036Z,83.2998
2023-12-07T02:48:04.090Z,83.2998
2023-12-07T02:49:04.111Z,83.48242
2023-12-07T02:50:04.036Z,83.48242
2023-12-07T02:51:04.039Z,83.6123
2023-12-07T02:52:04.086Z,83.6123
2023-12-07T02:53:04.037Z,83.6123
2023-12-07T02:54:04.042Z,83.6123
2023-12-07T02:55:04.126Z,84.10547
2023-12-07T02:56:04.034Z,84.10547
2023-12-07T02:57:04.045Z,84.19141
2023-12-07T02:58:04.069Z,84.19141
2023-12-07T02:59:04.044Z,84.19141
2023-12-07T03:00:04.049Z,84.19727
2023-12-07T03:01:04.097Z,84.19727
2023-12-07T03:02:04.113Z,83.92285
2023-12-07T03:03:04.033Z,83.92285
2023-12-07T03:04:04.134Z,83.84961
2023-12-07T03:05:04.033Z,83.84961
2023-12-07T03:06:04.083Z,83.84961
2023-12-07T03:07:04.076Z,84.06055
2023-12-07T03:08:04.052Z,84.06055
2023-12-07T03:09:04.040Z,84.20703
2023-12-07T03:10:04.585Z,84.20703
2023-12-07T03:11:04.059Z,84.66895
2023-12-07T03:12:04.037Z,84.66895
2023-12-07T03:13:04.085Z,84.95313
2023-12-07T03:14:04.041Z,84.95313
2023-12-07T03:15:04.037Z,84.82422
2023-12-07T03:16:04.052Z,84.82422
2023-12-07T03:17:04.034Z,84.04688
2023-12-07T03:18:04.132Z,84.04688
2023-12-07T03:19:04.095Z,83.70605
2023-12-07T03:20:04.040Z,83.70605
2023-12-07T03:21:04.054Z,83.72266
2023-12-07T03:22:04.079Z,83.72266
2023-12-07T03:23:04.131Z,83.72266
2023-12-07T03:24:04.045Z,83.72266
2023-12-07T03:25:04.135Z,83.59863
2023-12-07T03:26:04.071Z,83.59863
2023-12-07T03:27:04.045Z,83.5293
2023-12-07T03:28:04.084Z,83.5293
2023-12-07T03:29:04.041Z,83.43945
2023-12-07T03:30:04.043Z,83.43945
2023-12-07T03:31:04.061Z,83.24219
2023-12-07T03:32:04.047Z,83.24219
2023-12-07T03:33:04.098Z,82.96387
2023-12-07T03:34:04.214Z,82.96387
2023-12-07T03:35:04.044Z,82.67188
2023-12-07T03:36:04.042Z,82.67188
2023-12-07T03:37:04.080Z,82.83789
2023-12-07T03:38:04.044Z,82.83789
2023-12-07T03:39:04.059Z,83.24707
2023-12-07T03:40:04.067Z,83.24707
2023-12-07T03:41:04.041Z,83.38574
2023-12-07T03:42:04.044Z,83.38574
2023-12-07T03:43:04.251Z,84.07715
2023-12-07T03:44:04.061Z,84.07715
2023-12-07T03:45:04.045Z,84.21875
2023-12-07T03:46:04.106Z,84.21875
2023-12-07T03:47:04.042Z,83.49316
2023-12-07T03:48:04.129Z,83.49316
2023-12-07T03:49:04.165Z,84.02051
2023-12-07T03:50:04.056Z,84.02051
2023-12-07T03:51:04.045Z,83.62207
2023-12-07T03:52:04.092Z,83.62207
2023-12-07T03:53:04.055Z,83.47852
2023-12-07T03:54:04.051Z,83.47852
2023-12-07T03:55:04.158Z,83.56348
2023-12-07T03:56:04.048Z,83.56348
2023-12-07T03:57:04.048Z,83.69922
2023-12-07T03:58:04.112Z,83.69922
2023-12-07T03:59:04.046Z,83.69922
2023-12-07T04:00:04.047Z,83.38184
2023-12-07T04:01:04.121Z,83.38184
2023-12-07T04:02:04.164Z,82.74219
2023-12-07T04:03:04.124Z,82.74219
2023-12-07T04:04:04.135Z,82.64746
2023-12-07T04:05:04.049Z,82.64746
2023-12-07T04:06:04.113Z,82.3623
2023-12-07T04:07:04.072Z,82.3623
2023-12-07T04:08:04.057Z,82.41797
2023-12-07T04:09:04.044Z,82.41797
2023-12-07T04:10:04.078Z,82.80859
2023-12-07T04:11:04.045Z,82.80859
2023-12-07T04:12:04.100Z,83.77539
2023-12-07T04:13:04.076Z,83.77539
2023-12-07T04:14:04.043Z,83.58691
2023-12-07T04:15:04.040Z,83.58691
2023-12-07T04:16:04.108Z,82.49414
2023-12-07T04:17:04.053Z,82.49414
2023-12-07T04:18:04.112Z,81.92871
2023-12-07T04:19:04.215Z,81.92871
2023-12-07T04:20:04.053Z,81.91113
2023-12-07T04:21:04.040Z,81.91113
2023-12-07T04:22:04.080Z,81.81934
2023-12-07T04:23:04.057Z,81.81934
2023-12-07T04:24:04.051Z,81.99219
2023-12-07T04:25:04.161Z,81.99219
2023-12-07T04:26:04.048Z,82.19336
2023-12-07T04:27:04.054Z,82.19336
2023-12-07T04:28:04.116Z,82.9502
2023-12-07T04:29:04.067Z,82.9502
2023-12-07T04:30:04.045Z,83.05762
2023-12-07T04:31:04.068Z,83.05762
2023-12-07T04:32:04.052Z,83.05762
2023-12-07T04:33:04.117Z,83.05762
2023-12-07T04:34:04.120Z,83.1084
2023-12-07T04:35:04.073Z,83.1084
2023-12-07T04:36:04.052Z,83.8623
2023-12-07T04:37:04.109Z,83.8623
2023-12-07T04:38:04.059Z,83.52441
2023-12-07T04:39:04.055Z,83.52441
2023-12-07T04:40:04.099Z,81.89844
2023-12-07T04:41:04.056Z,81.89844
2023-12-07T04:42:04.052Z,81.95215
2023-12-07T04:43:04.112Z,81.95215
2023-12-07T04:44:04.062Z,82.08496
2023-12-07T04:45:04.050Z,82.08496
2023-12-07T04:46:04.079Z,81.93945
2023-12-07T04:47:04.061Z,81.93945
2023-12-07T04:48:04.132Z,81.45801
2023-12-07T04:49:04.214Z,81.45801
2023-12-07T04:50:04.058Z,80.80859
2023-12-07T04:51:04.054Z,80.80859
2023-12-07T04:52:04.132Z,80.46484
2023-12-07T04:53:04.063Z,80.46484
2023-12-07T04:54:12.504Z,80.4043
2023-12-07T04:55:05.265Z,80.4043
2023-12-07T04:56:04.053Z,80.16309
2023-12-07T04:57:04.064Z,80.16309
2023-12-07T04:58:04.121Z,79.89648
2023-12-07T04:59:04.065Z,79.89648
2023-12-07T05:00:04.058Z,79.16309
2023-12-07T05:01:04.219Z,79.16309
2023-12-07T05:02:04.135Z,79.31152
2023-12-07T05:03:04.149Z,79.31152
2023-12-07T05:04:04.096Z,79.50391
2023-12-07T05:05:04.156Z,79.50391
2023-12-07T05:06:04.089Z,79.5918
2023-12-07T05:07:04.131Z,79.5918
2023-12-07T05:08:04.074Z,79.49316
2023-12-07T05:09:04.082Z,79.49316
2023-12-07T05:10:04.270Z,79.75488
2023-12-07T05:11:04.065Z,79.75488
2023-12-07T05:12:04.058Z,79.77441
2023-12-07T05:13:04.089Z,79.77441
2023-12-07T05:14:04.065Z,79.44336
2023-12-07T05:15:04.064Z,79.44336
2023-12-07T05:16:04.078Z,79.44336
2023-12-07T05:17:04.248Z,78.84082
2023-12-07T05:18:04.675Z,78.84082
2023-12-07T05:19:04.218Z,78.65918
2023-12-07T05:20:04.060Z,78.65918
2023-12-07T05:21:04.066Z,78.96289
2023-12-07T05:22:04.108Z,78.96289
2023-12-07T05:23:04.073Z,79.50488
2023-12-07T05:24:04.063Z,79.50488
2023-12-07T05:25:04.201Z,79.67188
2023-12-07T05:26:04.064Z,79.67188
2023-12-07T05:27:04.068Z,79.26367
2023-12-07T05:28:04.107Z,79.26367
2023-12-07T05:29:04.063Z,79.02441
2023-12-07T05:30:04.064Z,79.02441
2023-12-07T05:31:04.110Z,79.02441
2023-12-07T05:32:04.066Z,79.02441
2023-12-07T05:33:04.181Z,79.34668
2023-12-07T05:34:04.173Z,79.34668
2023-12-07T05:35:04.060Z,79.19629
2023-12-07T05:36:04.070Z,79.19629
2023-12-07T05:37:04.077Z,78.66406
2023-12-07T05:38:04.058Z,78.66406
2023-12-07T05:39:04.085Z,78.03906
2023-12-07T05:40:04.126Z,78.03906
2023-12-07T05:41:04.070Z,78.03906
2023-12-07T05:42:04.057Z,77.96973
2023-12-07T05:43:04.145Z,77.96973
2023-12-07T05:44:04.057Z,78.20996
2023-12-07T05:45:04.057Z,78.20996
2023-12-07T05:46:04.124Z,78.2168
2023-12-07T05:47:04.064Z,78.2168
2023-12-07T05:48:04.254Z,78.14844
2023-12-07T05:49:04.124Z,78.14844
2023-12-07T05:50:04.060Z,77.96973
2023-12-07T05:51:04.063Z,77.96973
2023-12-07T05:52:04.173Z,77.57227
2023-12-07T05:53:04.062Z,77.57227
2023-12-07T05:54:04.078Z,77.61426
2023-12-07T05:55:04.112Z,77.61426
2023-12-07T05:56:05.065Z,77.7373
2023-12-07T05:57:04.059Z,77.7373
2023-12-07T05:58:04.101Z,76.73535
2023-12-07T05:59:04.071Z,76.73535
2023-12-07T06:00:04.057Z,76.35059
2023-12-07T06:01:04.350Z,76.35059
2023-12-07T06:02:05.610Z,75.61133
2023-12-07T06:03:05.152Z,75.61133
2023-12-07T06:04:04.118Z,75.46777
2023-12-07T06:05:04.087Z,75.46777
2023-12-07T06:06:04.070Z,74.92676
2023-12-07T06:07:04.100Z,74.92676
2023-12-07T06:08:04.070Z,74.85645
2023-12-07T06:09:04.079Z,74.85645
2023-12-07T06:10:04.114Z,74.65332
2023-12-07T06:11:04.066Z,74.65332
2023-12-07T06:12:04.061Z,74.71875
2023-12-07T06:13:04.127Z,74.71875
2023-12-07T06:14:04.384Z,74.58984
2023-12-07T06:15:04.063Z,74.58984
2023-12-07T06:16:04.137Z,74.80371
2023-12-07T06:17:04.074Z,74.80371
2023-12-07T06:18:04.137Z,74.52637
2023-12-07T06:19:04.144Z,74.52637
2023-12-07T06:20:04.062Z,74.44141
2023-12-07T06:21:04.062Z,74.44141
2023-12-07T06:22:04.099Z,74.44824
2023-12-07T06:23:04.072Z,74.44824
2023-12-07T06:24:04.068Z,74.44531
2023-12-07T06:25:04.145Z,74.44531
2023-12-07T06:26:04.063Z,74.44531
2023-12-07T06:27:04.066Z,74.44531
2023-12-07T06:28:04.087Z,75.11328
2023-12-07T06:29:04.066Z,75.11328
2023-12-07T06:30:04.064Z,75.21582
2023-12-07T06:31:04.088Z,75.21582
2023-12-07T06:32:04.067Z,75.69824
2023-12-07T06:33:04.139Z,75.69824
2023-12-07T06:34:04.219Z,75.16992
2023-12-07T06:35:04.116Z,75.16992
2023-12-07T06:36:04.065Z,75.16992
2023-12-07T06:37:04.115Z,74.67676
2023-12-07T06:38:04.074Z,74.67676
2023-12-07T06:39:04.066Z,74.51953
2023-12-07T06:40:04.112Z,74.51953
2023-12-07T06:41:04.066Z,74.6582
2023-12-07T06:42:04.069Z,74.6582
2023-12-07T06:43:04.179Z,75.10547
2023-12-07T06:44:04.068Z,75.10547
2023-12-07T06:45:04.081Z,75.2002
2023-12-07T06:46:04.090Z,75.2002
2023-12-07T06:47:04.065Z,75.08008
2023-12-07T06:48:04.097Z,75.08008
2023-12-07T06:49:04.182Z,74.23047
2023-12-07T06:50:05.685Z,74.23047
2023-12-07T06:51:05.200Z,74.69043
2023-12-07T06:52:04.139Z,74.69043
2023-12-07T06:53:04.099Z,74.44922
2023-12-07T06:54:04.081Z,74.44922
2023-12-07T06:55:04.125Z,73.54688
2023-12-07T06:56:04.089Z,73.54688
2023-12-07T06:57:04.105Z,73.28027
2023-12-07T06:58:04.130Z,73.28027
2023-12-07T06:59:04.063Z,72.7002
2023-12-07T07:00:04.094Z,72.7002
2023-12-07T07:01:04.261Z,72.7002
2023-12-07T07:02:04.174Z,73.31348
2023-12-07T07:03:04.068Z,73.31348
2023-12-07T07:04:04.185Z,73.21094
2023-12-07T07:05:04.215Z,73.21094
2023-12-07T07:06:04.142Z,73.21094
2023-12-07T07:07:04.102Z,73.21094
2023-12-07T07:08:04.089Z,73.1709
2023-12-07T07:09:04.069Z,73.1709
2023-12-07T07:10:04.190Z,73.1123
2023-12-07T07:11:04.076Z,73.1123
2023-12-07T07:12:04.081Z,72.94336
2023-12-07T07:13:04.260Z,72.94336
2023-12-07T07:14:04.074Z,72.6416
2023-12-07T07:15:04.072Z,72.6416
2023-12-07T07:16:05.232Z,72.49902
2023-12-07T07:17:04.072Z,72.49902
2023-12-07T07:18:04.153Z,73.04785
2023-12-07T07:19:04.169Z,73.04785
2023-12-07T07:20:04.070Z,73.27246
2023-12-07T07:21:04.077Z,73.27246
2023-12-07T07:22:04.094Z,73.43555
2023-12-07T07:23:04.081Z,73.43555
2023-12-07T07:24:05.578Z,73.0752
2023-12-07T07:25:04.167Z,73.0752
2023-12-07T07:26:04.097Z,72.40234
2023-12-07T07:27:04.084Z,72.40234
2023-12-07T07:28:04.104Z,71.31543
2023-12-07T07:29:04.097Z,71.31543
2023-12-07T07:30:04.074Z,71.31543
2023-12-07T07:31:04.093Z,71.31543
2023-12-07T07:32:04.075Z,71.34766
2023-12-07T07:33:04.094Z,71.34766
2023-12-07T07:34:04.244Z,71.35742
2023-12-07T07:35:04.179Z,71.35742
2023-12-07T07:36:04.083Z,71.89941
2023-12-07T07:37:04.118Z,71.89941
2023-12-07T07:38:04.076Z,70.39746
2023-12-07T07:39:04.071Z,70.39746
2023-12-07T07:40:04.087Z,69.86035
2023-12-07T07:41:04.078Z,69.86035
2023-12-07T07:42:04.071Z,69.47266
2023-12-07T07:43:04.088Z,69.47266
2023-12-07T07:44:05.220Z,69.44922
2023-12-07T07:45:04.085Z,69.44922
2023-12-07T07:46:04.094Z,68.58105
2023-12-07T07:47:04.078Z,68.58105
2023-12-07T07:48:04.170Z,68.44824
2023-12-07T07:49:04.133Z,68.44824
2023-12-07T07:50:04.075Z,68.86035
2023-12-07T07:51:04.080Z,68.86035
2023-12-07T07:52:04.081Z,69.10449
2023-12-07T07:53:04.077Z,69.10449
2023-12-07T07:54:04.076Z,69.10449
2023-12-07T07:55:04.302Z,69.17188
2023-12-07T07:56:04.087Z,69.17188
2023-12-07T07:57:04.082Z,68.51758
2023-12-07T07:58:04.123Z,68.51758
2023-12-07T07:59:04.077Z,69.01758
2023-12-07T08:00:04.080Z,69.01758
2023-12-07T08:01:04.199Z,68.89844
2023-12-07T08:02:04.101Z,68.89844
2023-12-07T08:03:04.094Z,68.74707
2023-12-07T08:04:04.166Z,68.74707
2023-12-07T08:05:04.102Z,68.74707
2023-12-07T08:06:04.132Z,68.74707
2023-12-07T08:07:04.104Z,68.57227
2023-12-07T08:08:04.078Z,68.57227
2023-12-07T08:09:04.089Z,68.49023
2023-12-07T08:10:04.159Z,68.49023
2023-12-07T08:11:04.124Z,68.53027
2023-12-07T08:12:04.091Z,68.53027
2023-12-07T08:13:04.096Z,68.36621
2023-12-07T08:14:04.105Z,68.36621
2023-12-07T08:15:04.111Z,67.42578
2023-12-07T08:16:04.217Z,67.42578
2023-12-07T08:17:04.074Z,66.62988
2023-12-07T08:18:04.203Z,66.62988
2023-12-07T08:19:04.156Z,67.40723
2023-12-07T08:20:04.091Z,67.40723
2023-12-07T08:21:04.088Z,67.40723
2023-12-07T08:22:04.118Z,67.40723
2023-12-07T08:23:04.088Z,67.65625
2023-12-07T08:24:04.082Z,67.65625
2023-12-07T08:25:10.617Z,67.2959
2023-12-07T08:26:05.116Z,67.2959
2023-12-07T08:27:04.105Z,67.18652
2023-12-07T08:28:04.113Z,67.18652
2023-12-07T08:29:04.971Z,67.9668
2023-12-07T08:30:04.089Z,67.9668
2023-12-07T08:31:04.138Z,69.24121
2023-12-07T08:32:04.079Z,69.24121
2023-12-07T08:33:04.281Z,69.34961
2023-12-07T08:34:04.260Z,69.34961
2023-12-07T08:35:04.162Z,68.91113
2023-12-07T08:36:04.104Z,68.91113
2023-12-07T08:37:04.151Z,70.43848
2023-12-07T08:38:04.083Z,70.43848
2023-12-07T08:39:04.083Z,73.41211
2023-12-07T08:40:04.121Z,73.41211
2023-12-07T08:41:04.114Z,75.35547
2023-12-07T08:42:04.080Z,75.35547
2023-12-07T08:43:04.137Z,75.50977
2023-12-07T08:44:04.087Z,75.50977
2023-12-07T08:45:04.086Z,74.13379
2023-12-07T08:46:04.134Z,74.13379
2023-12-07T08:47:04.080Z,73.65137
2023-12-07T08:48:04.159Z,73.65137
2023-12-07T08:49:04.380Z,73.65137
2023-12-07T08:50:04.087Z,74.53711
2023-12-07T08:51:04.092Z,74.53711
2023-12-07T08:52:16.904Z,75.52441
2023-12-07T08:53:05.871Z,75.52441
2023-12-07T08:54:04.118Z,75.71094
2023-12-07T08:55:04.197Z,75.71094
2023-12-07T08:56:04.085Z,75.15039
2023-12-07T08:57:04.088Z,75.15039
2023-12-07T08:58:04.146Z,74.84375
2023-12-07T08:59:04.094Z,74.84375
2023-12-07T09:00:04.085Z,76.08984
2023-12-07T09:01:04.191Z,76.08984
2023-12-07T09:02:04.175Z,76.88281
2023-12-07T09:03:04.153Z,76.88281
2023-12-07T09:04:04.158Z,76.95898
2023-12-07T09:05:04.100Z,76.95898
2023-12-07T09:06:04.176Z,75.81348
2023-12-07T09:07:04.263Z,75.81348
2023-12-07T09:08:04.092Z,76.30078
2023-12-07T09:09:04.126Z,76.30078
2023-12-07T09:10:04.340Z,75.8916
2023-12-07T09:11:04.090Z,75.8916
2023-12-07T09:12:04.101Z,75.80273
2023-12-07T09:13:04.145Z,75.80273
2023-12-07T09:14:04.091Z,76.44531
2023-12-07T09:15:04.087Z,76.44531
2023-12-07T09:16:04.125Z,76.53906
2023-12-07T09:17:04.096Z,76.53906
2023-12-07T09:18:04.162Z,76.34668
2023-12-07T09:19:04.175Z,76.34668
2023-12-07T09:20:04.099Z,76.56641
2023-12-07T09:21:04.112Z,76.56641
2023-12-07T09:22:04.166Z,76.64844
2023-12-07T09:23:04.103Z,76.64844
2023-12-07T09:24:04.094Z,75.65234
2023-12-07T09:25:04.190Z,75.65234
2023-12-07T09:26:04.088Z,75.14453
2023-12-07T09:27:04.146Z,75.14453
2023-12-07T09:28:04.189Z,74.70605
2023-12-07T09:29:04.099Z,74.70605
2023-12-07T09:30:04.122Z,74.29297
2023-12-07T09:31:04.153Z,74.29297
2023-12-07T09:32:04.104Z,74.29297
2023-12-07T09:33:04.249Z,74.29297
2023-12-07T09:34:12.252Z,75.08301
2023-12-07T09:35:05.307Z,75.08301
2023-12-07T09:36:04.097Z,75.1875
2023-12-07T09:37:04.139Z,75.1875
2023-12-07T09:38:04.091Z,75.05566
2023-12-07T09:39:04.097Z,75.05566
2023-12-07T09:40:04.109Z,74.50977
2023-12-07T09:41:04.097Z,74.50977
2023-12-07T09:42:04.117Z,74.19043
2023-12-07T09:43:04.116Z,74.19043
2023-12-07T09:44:04.096Z,74.13965
2023-12-07T09:45:04.094Z,74.13965
2023-12-07T09:46:04.121Z,74.24609
2023-12-07T09:47:05.473Z,74.24609
2023-12-07T09:48:04.180Z,74.24609
2023-12-07T09:49:04.302Z,74.24609
2023-12-07T09:50:04.100Z,74.24609
2023-12-07T09:51:04.094Z,73.5293
2023-12-07T09:52:04.271Z,73.5293
2023-12-07T09:53:08.070Z,73.59668
2023-12-07T09:54:05.384Z,73.59668
2023-12-07T09:55:04.340Z,74.50488
2023-12-07T09:56:04.097Z,74.50488
2023-12-07T09:57:04.101Z,75.1582
2023-12-07T09:58:04.156Z,75.1582
2023-12-07T09:59:04.162Z,75.2041
2023-12-07T10:00:04.098Z,75.2041
2023-12-07T10:01:04.275Z,75.1084
2023-12-07T10:02:04.245Z,75.1084
2023-12-07T10:03:04.180Z,75.2998
2023-12-07T10:04:04.190Z,75.2998
2023-12-07T10:05:04.218Z,75.17871
2023-12-07T10:06:04.129Z,75.17871
2023-12-07T10:07:04.131Z,74.6748
2023-12-07T10:08:04.101Z,74.6748
2023-12-07T10:09:04.101Z,75.7168
2023-12-07T10:10:04.157Z,75.7168
2023-12-07T10:11:04.108Z,75.73926
2023-12-07T10:12:04.107Z,75.73926
2023-12-07T10:13:04.126Z,75.41113
2023-12-07T10:14:04.116Z,75.41113
2023-12-07T10:15:04.100Z,75.5
2023-12-07T10:16:04.126Z,75.5
2023-12-07T10:17:04.102Z,76.26758
2023-12-07T10:18:04.216Z,76.26758
2023-12-07T10:19:04.183Z,76.94824
2023-12-07T10:20:04.105Z,76.94824
2023-12-07T10:21:04.114Z,76.78027
2023-12-07T10:22:04.163Z,76.78027
2023-12-07T10:23:04.105Z,76.1748
2023-12-07T10:24:04.120Z,76.1748
2023-12-07T10:25:04.116Z,76.27344
2023-12-07T10:26:04.101Z,76.27344
2023-12-07T10:27:04.548Z,76.93066
2023-12-07T10:28:04.130Z,76.93066
2023-12-07T10:29:04.107Z,77.70508
2023-12-07T10:30:04.107Z,77.70508
2023-12-07T10:31:04.184Z,77.89551
2023-12-07T10:32:04.273Z,77.89551
2023-12-07T10:33:04.169Z,76.69434
2023-12-07T10:34:04.195Z,76.69434
2023-12-07T10:35:04.121Z,76.40625
2023-12-07T10:36:04.117Z,76.40625
2023-12-07T10:37:04.146Z,77.11035
2023-12-07T10:38:04.101Z,77.11035
2023-12-07T10:39:04.107Z,79.97949
2023-12-07T10:40:04.122Z,79.97949
2023-12-07T10:41:04.114Z,80.07813
2023-12-07T10:42:04.100Z,80.07813
2023-12-07T10:43:04.129Z,80.00879
2023-12-07T10:44:04.108Z,80.00879
2023-12-07T10:45:04.107Z,79.46875
2023-12-07T10:46:04.205Z,79.46875
2023-12-07T10:47:04.157Z,79.06152
2023-12-07T10:48:04.155Z,79.06152
2023-12-07T10:49:04.187Z,79.8125
2023-12-07T10:50:04.208Z,79.8125
2023-12-07T10:51:04.168Z,79.76953
2023-12-07T10:52:04.144Z,79.76953
2023-12-07T10:53:04.112Z,80.62109
2023-12-07T10:54:04.108Z,80.62109
2023-12-07T10:55:04.281Z,80.62109
2023-12-07T10:56:04.111Z,80.62109
2023-12-07T10:57:04.110Z,80.72852
2023-12-07T10:58:04.138Z,80.72852
2023-12-07T10:59:04.104Z,79.9375
2023-12-07T11:00:04.108Z,79.9375
2023-12-07T11:01:04.420Z,80.52441
2023-12-07T11:02:04.282Z,80.52441
2023-12-07T11:03:04.606Z,80.7168
2023-12-07T11:04:04.257Z,80.7168
2023-12-07T11:05:04.303Z,81.49512
2023-12-07T11:06:04.109Z,81.49512
2023-12-07T11:07:04.182Z,81.49512
2023-12-07T11:08:04.114Z,80.87988
2023-12-07T11:09:04.102Z,80.87988
2023-12-07T11:10:04.149Z,80.85352
2023-12-07T11:11:04.123Z,80.85352
2023-12-07T11:12:04.104Z,80.55762
2023-12-07T11:13:04.187Z,80.55762
2023-12-07T11:14:04.106Z,80.75488
2023-12-07T11:15:04.107Z,80.75488
2023-12-07T11:16:04.405Z,81.23633
2023-12-07T11:17:04.260Z,81.23633
2023-12-07T11:18:04.183Z,81.23633
2023-12-07T11:19:04.699Z,81.23633
2023-12-07T11:20:04.157Z,80.73633
2023-12-07T11:21:04.139Z,80.73633
2023-12-07T11:22:04.198Z,80.41992
2023-12-07T11:23:04.126Z,80.41992
2023-12-07T11:24:04.109Z,80.28906
2023-12-07T11:25:05.213Z,80.28906
2023-12-07T11:26:04.108Z,79.81445
2023-12-07T11:27:04.106Z,79.81445
2023-12-07T11:28:04.178Z,79.81445
2023-12-07T11:29:04.109Z,80.05371
2023-12-07T11:30:04.146Z,80.05371
2023-12-07T11:31:04.257Z,80.63184
2023-12-07T11:32:05.152Z,80.63184
2023-12-07T11:33:05.246Z,80.70117
2023-12-07T11:34:04.152Z,80.70117
2023-12-07T11:35:04.111Z,81.04492
2023-12-07T11:36:04.156Z,81.04492
2023-12-07T11:37:04.144Z,81.04492
2023-12-07T11:38:04.122Z,81.04492
2023-12-07T11:39:04.204Z,80.92188
2023-12-07T11:40:04.174Z,80.92188
2023-12-07T11:41:04.115Z,81.28711
2023-12-07T11:42:04.117Z,81.28711
2023-12-07T11:43:04.145Z,81.27246
2023-12-07T11:44:04.129Z,81.27246
2023-12-07T11:45:04.120Z,81.27246
2023-12-07T11:46:04.210Z,81.19727
2023-12-07T11:47:04.126Z,81.19727